sensor_id;sensor_type;location;lat;lon;timestamp;pressure;altitude;pressure_sealevel;temperature;humidity
8573;BME280;4324;42.012;24.872;2023-07-30T00:01:45;98530.50;;;25.61;38.17
8573;BME280;4324;42.012;24.872;2023-07-30T00:04:12;98511.59;;;25.40;38.23
8573;BME280;4324;42.012;24.872;2023-07-30T00:06:39;98548.41;;;25.62;38.59
8573;BME280;4324;42.012;24.872;2023-07-30T00:09:07;98573.84;;;25.76;38.49
8573;BME280;4324;42.012;24.872;2023-07-30T00:11:34;98574.94;;;25.75;38.46
8573;BME280;4324;42.012;24.872;2023-07-30T00:14:01;98564.41;;;25.63;38.18
8573;BME280;4324;42.012;24.872;2023-07-30T00:16:28;98564.13;;;25.59;38.42
8573;BME280;4324;42.012;24.872;2023-07-30T00:18:57;98569.56;;;25.59;38.46
8573;BME280;4324;42.012;24.872;2023-07-30T00:21:24;98585.81;;;25.70;38.30
8573;BME280;4324;42.012;24.872;2023-07-30T00:23:51;98562.78;;;25.57;38.40
8573;BME280;4324;42.012;24.872;2023-07-30T00:26:18;98560.63;;;25.54;38.33
8573;BME280;4324;42.012;24.872;2023-07-30T00:28:45;98587.72;;;25.64;38.33
8573;BME280;4324;42.012;24.872;2023-07-30T00:31:11;98541.16;;;25.37;38.27
8573;BME280;4324;42.012;24.872;2023-07-30T00:33:44;98577.44;;;25.56;38.52
8573;BME280;4324;42.012;24.872;2023-07-30T00:36:13;98579.88;;;25.52;38.47
8573;BME280;4324;42.012;24.872;2023-07-30T00:38:40;98572.84;;;25.51;38.85
8573;BME280;4324;42.012;24.872;2023-07-30T00:41:06;98577.72;;;25.49;39.04
8573;BME280;4324;42.012;24.872;2023-07-30T00:43:33;98528.97;;;25.14;38.96
8573;BME280;4324;42.012;24.872;2023-07-30T00:46:01;98548.47;;;25.26;39.19
8573;BME280;4324;42.012;24.872;2023-07-30T00:48:29;98511.91;;;24.98;39.01
8573;BME280;4324;42.012;24.872;2023-07-30T00:50:59;98544.41;;;25.23;39.23
8573;BME280;4324;42.012;24.872;2023-07-30T00:53:28;98511.09;;;24.97;39.53
8573;BME280;4324;42.012;24.872;2023-07-30T00:55:55;98568.78;;;25.28;39.63
8573;BME280;4324;42.012;24.872;2023-07-30T00:58:23;98529.50;;;25.00;39.34
8573;BME280;4324;42.012;24.872;2023-07-30T01:00:53;98504.06;;;24.81;39.46
8573;BME280;4324;42.012;24.872;2023-07-30T01:03:20;98544.13;;;25.04;39.51
8573;BME280;4324;42.012;24.872;2023-07-30T01:05:47;98508.94;;;24.74;39.51
8573;BME280;4324;42.012;24.872;2023-07-30T01:08:15;98499.16;;;24.68;39.55
8573;BME280;4324;42.012;24.872;2023-07-30T01:10:43;98537.91;;;24.94;39.67
8573;BME280;4324;42.012;24.872;2023-07-30T01:13:11;98526.25;;;24.78;39.78
8573;BME280;4324;42.012;24.872;2023-07-30T01:15:39;98505.13;;;24.65;39.70
8573;BME280;4324;42.012;24.872;2023-07-30T01:18:06;98505.13;;;24.65;40.04
8573;BME280;4324;42.012;24.872;2023-07-30T01:20:33;98514.84;;;24.66;39.93
8573;BME280;4324;42.012;24.872;2023-07-30T01:23:02;98522.72;;;24.72;40.06
8573;BME280;4324;42.012;24.872;2023-07-30T01:25:32;98517.56;;;24.66;40.00
8573;BME280;4324;42.012;24.872;2023-07-30T01:28:03;98498.88;;;24.54;39.96
8573;BME280;4324;42.012;24.872;2023-07-30T01:30:35;98509.97;;;24.57;39.85
8573;BME280;4324;42.012;24.872;2023-07-30T01:33:05;98541.69;;;24.77;40.21
8573;BME280;4324;42.012;24.872;2023-07-30T01:35:32;98525.69;;;24.60;40.03
8573;BME280;4324;42.012;24.872;2023-07-30T01:38:02;98484.22;;;24.34;40.26
8573;BME280;4324;42.012;24.872;2023-07-30T01:40:31;98480.44;;;24.25;40.20
8573;BME280;4324;42.012;24.872;2023-07-30T01:42:58;98507.47;;;24.35;40.52
8573;BME280;4324;42.012;24.872;2023-07-30T01:45:25;98512.63;;;24.32;40.55
8573;BME280;4324;42.012;24.872;2023-07-30T01:47:52;98499.63;;;24.24;40.55
8573;BME280;4324;42.012;24.872;2023-07-30T01:50:19;98508.81;;;24.28;40.59
8573;BME280;4324;42.012;24.872;2023-07-30T01:52:47;98522.91;;;24.35;40.59
8573;BME280;4324;42.012;24.872;2023-07-30T01:55:18;98509.91;;;24.27;40.49
8573;BME280;4324;42.012;24.872;2023-07-30T01:57:45;98547.88;;;24.52;40.55
8573;BME280;4324;42.012;24.872;2023-07-30T02:00:12;98500.44;;;24.14;40.60
8573;BME280;4324;42.012;24.872;2023-07-30T02:02:39;98519.94;;;24.26;40.72
8573;BME280;4324;42.012;24.872;2023-07-30T02:05:06;98556.53;;;24.49;40.87
8573;BME280;4324;42.012;24.872;2023-07-30T02:07:34;98577.41;;;24.59;40.77
8573;BME280;4324;42.012;24.872;2023-07-30T02:10:00;98517.47;;;24.20;40.79
8573;BME280;4324;42.012;24.872;2023-07-30T02:12:29;98513.38;;;24.17;40.99
8573;BME280;4324;42.012;24.872;2023-07-30T02:14:56;98574.09;;;24.47;40.87
8573;BME280;4324;42.012;24.872;2023-07-30T02:17:23;98494.94;;;23.99;40.83
8573;BME280;4324;42.012;24.872;2023-07-30T02:19:50;98576.00;;;24.41;40.99
8573;BME280;4324;42.012;24.872;2023-07-30T02:22:17;98548.88;;;24.26;40.84
8573;BME280;4324;42.012;24.872;2023-07-30T02:24:44;98585.75;;;24.47;41.00
8573;BME280;4324;42.012;24.872;2023-07-30T02:27:11;98568.66;;;24.36;41.16
8573;BME280;4324;42.012;24.872;2023-07-30T02:29:40;98589.28;;;24.53;41.09
8573;BME280;4324;42.012;24.872;2023-07-30T02:32:08;98523.13;;;24.08;41.05
8573;BME280;4324;42.012;24.872;2023-07-30T02:34:35;98561.31;;;24.32;41.33
8573;BME280;4324;42.012;24.872;2023-07-30T02:37:03;98547.78;;;24.22;41.44
8573;BME280;4324;42.012;24.872;2023-07-30T02:39:30;98528.53;;;24.08;41.58
8573;BME280;4324;42.012;24.872;2023-07-30T02:41:57;98542.06;;;24.13;41.42
8573;BME280;4324;42.012;24.872;2023-07-30T02:44:24;98560.75;;;24.14;41.54
8573;BME280;4324;42.012;24.872;2023-07-30T02:46:52;98590.03;;;24.38;41.66
8573;BME280;4324;42.012;24.872;2023-07-30T02:49:19;98529.28;;;23.98;41.62
8573;BME280;4324;42.012;24.872;2023-07-30T02:51:46;98594.88;;;24.36;41.48
8573;BME280;4324;42.012;24.872;2023-07-30T02:54:14;98564.78;;;24.17;41.55
8573;BME280;4324;42.012;24.872;2023-07-30T02:56:41;98527.34;;;23.83;41.74
8573;BME280;4324;42.012;24.872;2023-07-30T02:59:08;98598.66;;;24.35;41.79
8573;BME280;4324;42.012;24.872;2023-07-30T03:01:35;98585.38;;;24.18;41.69
8573;BME280;4324;42.012;24.872;2023-07-30T03:04:04;98617.06;;;24.33;41.25
8573;BME280;4324;42.012;24.872;2023-07-30T03:06:32;98573.66;;;24.02;41.56
8573;BME280;4324;42.012;24.872;2023-07-30T03:08:59;98524.25;;;23.64;41.69
8573;BME280;4324;42.012;24.872;2023-07-30T03:11:26;98607.78;;;24.13;41.91
8573;BME280;4324;42.012;24.872;2023-07-30T03:13:53;98587.97;;;23.98;41.88
8573;BME280;4324;42.012;24.872;2023-07-30T03:16:20;98565.19;;;23.83;41.71
8573;BME280;4324;42.012;24.872;2023-07-30T03:18:47;98567.34;;;23.81;41.77
8573;BME280;4324;42.012;24.872;2023-07-30T03:21:16;98605.84;;;24.04;41.78
8573;BME280;4324;42.012;24.872;2023-07-30T03:23:44;98610.97;;;24.00;41.83
8573;BME280;4324;42.012;24.872;2023-07-30T03:26:11;98589.78;;;23.82;41.96
8573;BME280;4324;42.012;24.872;2023-07-30T03:28:38;98648.69;;;24.22;41.91
8573;BME280;4324;42.012;24.872;2023-07-30T03:31:05;98646.22;;;24.21;41.85
8573;BME280;4324;42.012;24.872;2023-07-30T03:33:32;98552.59;;;23.62;41.62
8573;BME280;4324;42.012;24.872;2023-07-30T03:36:00;98612.59;;;23.96;41.70
8573;BME280;4324;42.012;24.872;2023-07-30T03:38:28;98610.13;;;23.95;42.13
8573;BME280;4324;42.012;24.872;2023-07-30T03:40:55;98579.50;;;23.79;42.05
8573;BME280;4324;42.012;24.872;2023-07-30T03:43:24;98601.78;;;23.96;41.90
8573;BME280;4324;42.012;24.872;2023-07-30T03:45:51;98594.19;;;23.93;41.94
8573;BME280;4324;42.012;24.872;2023-07-30T03:48:19;98639.47;;;24.23;42.11
8573;BME280;4324;42.012;24.872;2023-07-30T03:50:46;98558.63;;;23.69;41.89
8573;BME280;4324;42.012;24.872;2023-07-30T03:53:12;98603.41;;;24.02;42.04
8573;BME280;4324;42.012;24.872;2023-07-30T03:55:42;98595.31;;;24.07;41.89
8573;BME280;4324;42.012;24.872;2023-07-30T03:58:09;98605.63;;;24.10;42.00
8573;BME280;4324;42.012;24.872;2023-07-30T04:00:36;98620.53;;;24.23;41.86
8573;BME280;4324;42.012;24.872;2023-07-30T04:03:03;98575.81;;;24.00;41.76
8573;BME280;4324;42.012;24.872;2023-07-30T04:05:30;98585.56;;;24.06;41.79
8573;BME280;4324;42.012;24.872;2023-07-30T04:07:57;98589.41;;;24.10;41.92
8573;BME280;4324;42.012;24.872;2023-07-30T04:10:24;98641.50;;;24.48;41.59
8573;BME280;4324;42.012;24.872;2023-07-30T04:12:56;98631.22;;;24.45;41.44
8573;BME280;4324;42.012;24.872;2023-07-30T04:15:23;98621.19;;;24.46;41.54
8573;BME280;4324;42.012;24.872;2023-07-30T04:17:50;98634.78;;;24.61;41.71
8573;BME280;4324;42.012;24.872;2023-07-30T04:20:17;98611.47;;;24.50;41.33
8573;BME280;4324;42.012;24.872;2023-07-30T04:22:44;98649.69;;;24.69;41.42
8573;BME280;4324;42.012;24.872;2023-07-30T04:25:11;98637.47;;;24.61;41.62
8573;BME280;4324;42.012;24.872;2023-07-30T04:27:38;98651.34;;;24.75;41.40
8573;BME280;4324;42.012;24.872;2023-07-30T04:30:07;98628.28;;;24.57;41.54
8573;BME280;4324;42.012;24.872;2023-07-30T04:32:35;98574.31;;;24.30;41.53
8573;BME280;4324;42.012;24.872;2023-07-30T04:35:02;98613.88;;;24.46;41.38
8573;BME280;4324;42.012;24.872;2023-07-30T04:37:30;98660.81;;;24.87;41.53
8573;BME280;4324;42.012;24.872;2023-07-30T04:39:57;98608.25;;;24.68;41.03
8573;BME280;4324;42.012;24.872;2023-07-30T04:42:49;98662.50;;;25.09;40.93
8573;BME280;4324;42.012;24.872;2023-07-30T04:45:18;98629.13;;;24.88;40.59
8573;BME280;4324;42.012;24.872;2023-07-30T04:47:45;98664.97;;;25.21;40.82
8573;BME280;4324;42.012;24.872;2023-07-30T04:50:12;98669.84;;;25.24;40.58
8573;BME280;4324;42.012;24.872;2023-07-30T04:52:39;98658.22;;;25.28;40.63
8573;BME280;4324;42.012;24.872;2023-07-30T04:55:09;98574.19;;;24.82;40.74
8573;BME280;4324;42.012;24.872;2023-07-30T04:57:38;98615.38;;;25.05;40.56
8573;BME280;4324;42.012;24.872;2023-07-30T05:00:06;98661.75;;;25.34;40.37
8573;BME280;4324;42.012;24.872;2023-07-30T05:02:38;98603.72;;;25.04;40.32
8573;BME280;4324;42.012;24.872;2023-07-30T05:05:05;98642.22;;;25.32;40.60
8573;BME280;4324;42.012;24.872;2023-07-30T05:07:32;98680.72;;;25.59;40.37
8573;BME280;4324;42.012;24.872;2023-07-30T05:10:02;98583.72;;;25.10;40.36
8573;BME280;4324;42.012;24.872;2023-07-30T05:12:33;98622.72;;;25.35;40.05
8573;BME280;4324;42.012;24.872;2023-07-30T05:15:09;98673.69;;;25.79;40.23
8573;BME280;4324;42.012;24.872;2023-07-30T05:17:48;98595.63;;;25.35;40.06
8573;BME280;4324;42.012;24.872;2023-07-30T05:20:25;98590.72;;;25.42;40.19
8573;BME280;4324;42.012;24.872;2023-07-30T05:23:02;98592.63;;;25.52;39.79
8573;BME280;4324;42.012;24.872;2023-07-30T05:25:32;98592.06;;;25.60;39.82
8573;BME280;4324;42.012;24.872;2023-07-30T05:28:02;98679.00;;;26.25;39.48
8573;BME280;4324;42.012;24.872;2023-07-30T05:30:58;98622.09;;;25.99;39.33
8573;BME280;4324;42.012;24.872;2023-07-30T05:33:30;98623.44;;;26.07;39.13
8573;BME280;4324;42.012;24.872;2023-07-30T05:36:01;98624.22;;;26.13;39.24
8573;BME280;4324;42.012;24.872;2023-07-30T05:38:32;98679.72;;;26.56;39.23
8573;BME280;4324;42.012;24.872;2023-07-30T05:41:19;98678.03;;;26.65;38.73
8573;BME280;4324;42.012;24.872;2023-07-30T05:44:09;98683.44;;;26.75;38.71
8573;BME280;4324;42.012;24.872;2023-07-30T05:46:38;98656.88;;;26.67;38.65
8573;BME280;4324;42.012;24.872;2023-07-30T05:49:48;98686.06;;;26.91;38.54
8573;BME280;4324;42.012;24.872;2023-07-30T05:52:16;98646.28;;;26.66;38.45
8573;BME280;4324;42.012;24.872;2023-07-30T05:54:46;98646.78;;;26.73;39.00
8573;BME280;4324;42.012;24.872;2023-07-30T05:57:13;98580.72;;;26.33;38.90
8573;BME280;4324;42.012;24.872;2023-07-30T05:59:41;98613.50;;;26.52;39.21
8573;BME280;4324;42.012;24.872;2023-07-30T06:02:11;98641.69;;;26.66;39.55
8573;BME280;4324;42.012;24.872;2023-07-30T06:04:42;98652.19;;;26.78;39.51
8573;BME280;4324;42.012;24.872;2023-07-30T06:07:10;98672.19;;;26.97;39.56
8573;BME280;4324;42.012;24.872;2023-07-30T06:09:37;98583.91;;;26.50;39.72
8573;BME280;4324;42.012;24.872;2023-07-30T06:12:20;98572.53;;;26.48;39.80
8573;BME280;4324;42.012;24.872;2023-07-30T06:14:51;98580.03;;;26.62;39.45
8573;BME280;4324;42.012;24.872;2023-07-30T06:17:18;98589.19;;;26.76;39.64
8573;BME280;4324;42.012;24.872;2023-07-30T06:19:57;98634.59;;;27.10;39.48
8573;BME280;4324;42.012;24.872;2023-07-30T06:22:29;98620.00;;;27.00;39.28
8573;BME280;4324;42.012;24.872;2023-07-30T06:25:10;98637.31;;;27.15;39.42
8573;BME280;4324;42.012;24.872;2023-07-30T06:27:42;98602.63;;;26.96;39.49
8573;BME280;4324;42.012;24.872;2023-07-30T06:30:10;98587.22;;;26.87;39.59
8573;BME280;4324;42.012;24.872;2023-07-30T06:32:37;98625.78;;;27.28;39.47
8573;BME280;4324;42.012;24.872;2023-07-30T06:35:10;98624.16;;;27.27;39.54
8573;BME280;4324;42.012;24.872;2023-07-30T06:37:39;98606.75;;;27.28;39.19
8573;BME280;4324;42.012;24.872;2023-07-30T06:40:12;98608.81;;;27.41;39.18
8573;BME280;4324;42.012;24.872;2023-07-30T06:42:39;98666.09;;;27.84;39.14
8573;BME280;4324;42.012;24.872;2023-07-30T06:45:10;98605.47;;;27.49;39.01
8573;BME280;4324;42.012;24.872;2023-07-30T06:47:37;98609.81;;;27.50;38.73
8573;BME280;4324;42.012;24.872;2023-07-30T06:50:07;98573.63;;;27.26;38.83
8573;BME280;4324;42.012;24.872;2023-07-30T06:52:37;98555.44;;;27.21;38.88
8573;BME280;4324;42.012;24.872;2023-07-30T06:55:07;98574.91;;;27.34;38.89
8573;BME280;4324;42.012;24.872;2023-07-30T06:57:39;98618.06;;;27.74;38.87
8573;BME280;4324;42.012;24.872;2023-07-30T07:00:10;98584.19;;;27.57;38.87
8573;BME280;4324;42.012;24.872;2023-07-30T07:03:01;98642.19;;;28.05;38.75
8573;BME280;4324;42.012;24.872;2023-07-30T07:05:41;98574.53;;;27.69;38.58
8573;BME280;4324;42.012;24.872;2023-07-30T07:08:41;98550.66;;;27.66;38.71
8573;BME280;4324;42.012;24.872;2023-07-30T07:11:08;98568.94;;;27.85;38.39
8573;BME280;4324;42.012;24.872;2023-07-30T07:13:40;98552.47;;;27.76;38.44
8573;BME280;4324;42.012;24.872;2023-07-30T07:16:10;98603.19;;;28.15;38.29
8573;BME280;4324;42.012;24.872;2023-07-30T07:18:42;98585.75;;;28.16;38.06
8573;BME280;4324;42.012;24.872;2023-07-30T07:21:13;98588.84;;;28.28;38.04
8573;BME280;4324;42.012;24.872;2023-07-30T07:23:42;98562.34;;;28.15;37.63
8573;BME280;4324;42.012;24.872;2023-07-30T07:26:10;98591.91;;;28.45;37.66
8573;BME280;4324;42.012;24.872;2023-07-30T07:28:37;98580.72;;;28.47;37.32
8573;BME280;4324;42.012;24.872;2023-07-30T07:31:04;98595.44;;;28.65;37.24
8573;BME280;4324;42.012;24.872;2023-07-30T07:33:32;98612.38;;;28.81;37.21
8573;BME280;4324;42.012;24.872;2023-07-30T07:36:06;98617.31;;;28.98;37.02
8573;BME280;4324;42.012;24.872;2023-07-30T07:38:35;98576.16;;;28.80;37.03
8573;BME280;4324;42.012;24.872;2023-07-30T07:41:02;98576.69;;;28.82;36.66
8573;BME280;4324;42.012;24.872;2023-07-30T07:43:30;98580.22;;;28.83;36.98
8573;BME280;4324;42.012;24.872;2023-07-30T07:45:57;98561.59;;;28.71;36.72
8573;BME280;4324;42.012;24.872;2023-07-30T07:48:27;98559.81;;;28.80;36.73
8573;BME280;4324;42.012;24.872;2023-07-30T07:51:10;98572.91;;;28.97;37.06
8573;BME280;4324;42.012;24.872;2023-07-30T07:53:41;98547.28;;;28.98;36.72
8573;BME280;4324;42.012;24.872;2023-07-30T07:56:10;98578.47;;;29.25;36.97
8573;BME280;4324;42.012;24.872;2023-07-30T07:58:42;98595.09;;;29.42;36.67
8573;BME280;4324;42.012;24.872;2023-07-30T08:01:23;98523.50;;;29.04;36.98
8573;BME280;4324;42.012;24.872;2023-07-30T08:03:57;98618.41;;;29.67;36.69
8573;BME280;4324;42.012;24.872;2023-07-30T08:06:36;98617.09;;;29.78;36.61
8573;BME280;4324;42.012;24.872;2023-07-30T08:09:08;98542.66;;;29.45;36.24
8573;BME280;4324;42.012;24.872;2023-07-30T08:11:42;98615.09;;;29.98;36.25
8573;BME280;4324;42.012;24.872;2023-07-30T08:14:31;98614.38;;;30.06;36.03
8573;BME280;4324;42.012;24.872;2023-07-30T08:17:14;98529.25;;;29.62;35.54
8573;BME280;4324;42.012;24.872;2023-07-30T08:23:33;98564.84;;;29.99;35.74
8573;BME280;4324;42.012;24.872;2023-07-30T08:26:06;98562.81;;;30.18;35.38
8573;BME280;4324;42.012;24.872;2023-07-30T08:28:42;98507.03;;;29.97;35.38
8573;BME280;4324;42.012;24.872;2023-07-30T08:31:10;98510.34;;;30.07;35.12
8573;BME280;4324;42.012;24.872;2023-07-30T08:33:37;98530.75;;;30.37;34.95
8573;BME280;4324;42.012;24.872;2023-07-30T08:36:11;98500.69;;;30.37;35.08
8573;BME280;4324;42.012;24.872;2023-07-30T08:38:41;98509.75;;;30.47;34.60
8573;BME280;4324;42.012;24.872;2023-07-30T08:41:09;98517.03;;;30.51;34.62
8573;BME280;4324;42.012;24.872;2023-07-30T08:43:37;98523.19;;;30.57;34.89
8573;BME280;4324;42.012;24.872;2023-07-30T08:46:21;98574.78;;;30.95;34.77
8573;BME280;4324;42.012;24.872;2023-07-30T08:49:21;98566.34;;;31.05;34.31
8573;BME280;4324;42.012;24.872;2023-07-30T08:52:13;98560.31;;;31.17;34.61
8573;BME280;4324;42.012;24.872;2023-07-30T08:55:16;98504.88;;;31.02;34.10
8573;BME280;4324;42.012;24.872;2023-07-30T08:57:49;98555.53;;;31.53;33.69
8573;BME280;4324;42.012;24.872;2023-07-30T09:00:22;98496.41;;;31.35;33.38
8573;BME280;4324;42.012;24.872;2023-07-30T09:03:24;98469.72;;;31.18;33.36
8573;BME280;4324;42.012;24.872;2023-07-30T09:05:55;98515.63;;;31.52;32.88
8573;BME280;4324;42.012;24.872;2023-07-30T09:08:27;98491.47;;;31.46;32.93
8573;BME280;4324;42.012;24.872;2023-07-30T09:10:56;98504.56;;;31.66;33.06
8573;BME280;4324;42.012;24.872;2023-07-30T09:13:25;98458.81;;;31.49;32.51
8573;BME280;4324;42.012;24.872;2023-07-30T09:15:52;98505.94;;;31.86;32.58
8573;BME280;4324;42.012;24.872;2023-07-30T09:18:19;98482.72;;;31.75;32.35
8573;BME280;4324;42.012;24.872;2023-07-30T09:20:46;98501.72;;;31.80;32.36
8573;BME280;4324;42.012;24.872;2023-07-30T09:23:14;98475.56;;;31.56;32.38
8573;BME280;4324;42.012;24.872;2023-07-30T09:25:48;98445.06;;;31.41;32.54
8573;BME280;4324;42.012;24.872;2023-07-30T09:28:22;98514.00;;;31.91;31.96
8573;BME280;4324;42.012;24.872;2023-07-30T09:31:40;98505.16;;;31.94;31.96
8573;BME280;4324;42.012;24.872;2023-07-30T09:34:21;98423.88;;;31.46;31.80
8573;BME280;4324;42.012;24.872;2023-07-30T09:36:53;98483.03;;;31.82;31.87
8573;BME280;4324;42.012;24.872;2023-07-30T09:39:23;98503.09;;;32.09;31.97
8573;BME280;4324;42.012;24.872;2023-07-30T09:42:16;98498.13;;;32.19;31.65
8573;BME280;4324;42.012;24.872;2023-07-30T09:44:58;98484.91;;;32.39;31.35
8573;BME280;4324;42.012;24.872;2023-07-30T09:47:30;98451.09;;;32.43;31.35
8573;BME280;4324;42.012;24.872;2023-07-30T09:50:01;98440.91;;;32.61;31.20
8573;BME280;4324;42.012;24.872;2023-07-30T09:52:29;98449.09;;;32.79;31.16
8573;BME280;4324;42.012;24.872;2023-07-30T09:54:57;98410.13;;;32.47;30.97
8573;BME280;4324;42.012;24.872;2023-07-30T09:57:25;98404.66;;;32.47;30.73
8573;BME280;4324;42.012;24.872;2023-07-30T09:59:52;98391.44;;;32.49;30.56
8573;BME280;4324;42.012;24.872;2023-07-30T10:02:20;98426.50;;;32.82;30.54
8573;BME280;4324;42.012;24.872;2023-07-30T10:04:50;98408.94;;;32.74;30.63
8573;BME280;4324;42.012;24.872;2023-07-30T10:07:24;98401.06;;;32.72;30.32
8573;BME280;4324;42.012;24.872;2023-07-30T10:09:57;98381.56;;;32.65;30.44
8573;BME280;4324;42.012;24.872;2023-07-30T10:15:27;98435.41;;;33.25;30.33
8573;BME280;4324;42.012;24.872;2023-07-30T10:17:58;98362.00;;;32.84;30.24
8573;BME280;4324;42.012;24.872;2023-07-30T10:20:32;98432.97;;;33.33;30.20
8573;BME280;4324;42.012;24.872;2023-07-30T10:23:05;98408.28;;;33.33;29.67
8573;BME280;4324;42.012;24.872;2023-07-30T10:25:45;98402.72;;;33.50;29.53
8573;BME280;4324;42.012;24.872;2023-07-30T10:28:49;98387.94;;;33.63;29.34
8573;BME280;4324;42.012;24.872;2023-07-30T10:31:43;98420.75;;;34.10;28.81
8573;BME280;4324;42.012;24.872;2023-07-30T10:35:33;98427.66;;;34.16;29.10
8573;BME280;4324;42.012;24.872;2023-07-30T10:37:07;98413.00;;;34.12;28.60
8573;BME280;4324;42.012;24.872;2023-07-30T10:39:37;98421.69;;;34.14;28.50
8573;BME280;4324;42.012;24.872;2023-07-30T10:42:10;98357.16;;;33.79;28.71
8573;BME280;4324;42.012;24.872;2023-07-30T10:44:43;98382.38;;;34.02;28.34
8573;BME280;4324;42.012;24.872;2023-07-30T10:47:19;98328.03;;;33.86;28.68
8573;BME280;4324;42.012;24.872;2023-07-30T10:49:47;98341.97;;;34.02;28.36
8573;BME280;4324;42.012;24.872;2023-07-30T10:52:24;98380.91;;;34.37;27.78
8573;BME280;4324;42.012;24.872;2023-07-30T10:55:00;98368.53;;;34.31;27.52
8573;BME280;4324;42.012;24.872;2023-07-30T10:57:30;98327.56;;;34.05;27.45
8573;BME280;4324;42.012;24.872;2023-07-30T10:59:58;98350.50;;;34.22;27.36
8573;BME280;4324;42.012;24.872;2023-07-30T11:02:29;98373.94;;;34.40;27.56
8573;BME280;4324;42.012;24.872;2023-07-30T11:04:56;98333.34;;;34.25;27.05
8573;BME280;4324;42.012;24.872;2023-07-30T11:07:24;98310.44;;;34.20;26.99
8573;BME280;4324;42.012;24.872;2023-07-30T11:10:01;98309.34;;;34.34;26.84
8573;BME280;4324;42.012;24.872;2023-07-30T11:12:28;98346.66;;;34.68;26.71
8573;BME280;4324;42.012;24.872;2023-07-30T11:15:01;98349.31;;;34.77;26.37
8573;BME280;4324;42.012;24.872;2023-07-30T11:17:28;98312.16;;;34.58;26.28
8573;BME280;4324;42.012;24.872;2023-07-30T11:19:56;98352.06;;;34.89;26.44
8573;BME280;4324;42.012;24.872;2023-07-30T11:22:30;98318.94;;;34.73;26.17
8573;BME280;4324;42.012;24.872;2023-07-30T11:24:59;98307.38;;;34.67;26.33
8573;BME280;4324;42.012;24.872;2023-07-30T11:27:44;98348.19;;;35.14;25.78
8573;BME280;4324;42.012;24.872;2023-07-30T11:30:12;98286.50;;;34.91;25.66
8573;BME280;4324;42.012;24.872;2023-07-30T11:32:44;98300.97;;;35.12;25.14
8573;BME280;4324;42.012;24.872;2023-07-30T11:35:12;98328.47;;;35.25;24.75
8573;BME280;4324;42.012;24.872;2023-07-30T11:37:45;98298.13;;;35.09;24.94
8573;BME280;4324;42.012;24.872;2023-07-30T11:40:16;98301.09;;;35.16;24.61
8573;BME280;4324;42.012;24.872;2023-07-30T11:42:43;98311.50;;;35.23;24.58
8573;BME280;4324;42.012;24.872;2023-07-30T11:45:20;98284.00;;;34.98;24.41
8573;BME280;4324;42.012;24.872;2023-07-30T11:48:05;98337.66;;;35.29;24.38
8573;BME280;4324;42.012;24.872;2023-07-30T11:50:50;98241.59;;;34.87;24.04
8573;BME280;4324;42.012;24.872;2023-07-30T11:53:19;98246.28;;;34.99;24.27
8573;BME280;4324;42.012;24.872;2023-07-30T11:55:47;98323.63;;;35.58;23.95
8573;BME280;4324;42.012;24.872;2023-07-30T11:58:14;98328.56;;;35.65;24.05
8573;BME280;4324;42.012;24.872;2023-07-30T12:00:46;98276.41;;;35.32;23.75
8573;BME280;4324;42.012;24.872;2023-07-30T12:03:16;98295.31;;;35.58;23.79
8573;BME280;4324;42.012;24.872;2023-07-30T12:05:52;98256.88;;;35.37;23.50
8573;BME280;4324;42.012;24.872;2023-07-30T12:08:25;98235.59;;;35.22;23.01
8573;BME280;4324;42.012;24.872;2023-07-30T12:11:05;98264.34;;;35.36;22.98
8573;BME280;4324;42.012;24.872;2023-07-30T12:13:32;98285.28;;;35.66;23.02
8573;BME280;4324;42.012;24.872;2023-07-30T12:16:03;98238.31;;;35.46;23.01
8573;BME280;4324;42.012;24.872;2023-07-30T12:18:35;98231.22;;;35.73;22.99
8573;BME280;4324;42.012;24.872;2023-07-30T12:21:06;98246.75;;;35.94;22.91
8573;BME280;4324;42.012;24.872;2023-07-30T12:23:40;98233.66;;;35.91;22.62
8573;BME280;4324;42.012;24.872;2023-07-30T12:26:08;98237.63;;;36.05;22.22
8573;BME280;4324;42.012;24.872;2023-07-30T12:28:36;98182.19;;;35.79;22.44
8573;BME280;4324;42.012;24.872;2023-07-30T12:31:03;98266.38;;;36.36;22.50
8573;BME280;4324;42.012;24.872;2023-07-30T12:33:31;98267.34;;;36.44;22.36
8573;BME280;4324;42.012;24.872;2023-07-30T12:36:04;98268.03;;;36.53;22.18
8573;BME280;4324;42.012;24.872;2023-07-30T12:38:31;98217.75;;;36.28;22.18
8573;BME280;4324;42.012;24.872;2023-07-30T12:40:59;98213.47;;;36.30;22.00
8573;BME280;4324;42.012;24.872;2023-07-30T12:43:27;98247.97;;;36.40;22.13
8573;BME280;4324;42.012;24.872;2023-07-30T12:45:58;98237.72;;;36.25;22.14
8573;BME280;4324;42.012;24.872;2023-07-30T12:48:25;98257.50;;;36.43;22.02
8573;BME280;4324;42.012;24.872;2023-07-30T12:50:58;98221.56;;;36.23;22.13
8573;BME280;4324;42.012;24.872;2023-07-30T12:53:26;98220.41;;;36.40;21.92
8573;BME280;4324;42.012;24.872;2023-07-30T12:55:53;98216.22;;;36.46;22.19
8573;BME280;4324;42.012;24.872;2023-07-30T12:58:24;98239.72;;;36.72;22.14
8573;BME280;4324;42.012;24.872;2023-07-30T13:00:51;98232.25;;;36.72;21.83
8573;BME280;4324;42.012;24.872;2023-07-30T13:03:18;98214.81;;;36.68;21.64
8573;BME280;4324;42.012;24.872;2023-07-30T13:05:45;98239.25;;;37.01;21.36
8573;BME280;4324;42.012;24.872;2023-07-30T13:08:15;98236.91;;;37.03;21.65
8573;BME280;4324;42.012;24.872;2023-07-30T13:10:42;98202.88;;;36.80;21.38
8573;BME280;4324;42.012;24.872;2023-07-30T13:13:09;98210.88;;;36.69;20.94
8573;BME280;4324;42.012;24.872;2023-07-30T13:15:37;98172.03;;;36.27;20.93
8573;BME280;4324;42.012;24.872;2023-07-30T13:18:04;98150.34;;;36.09;21.20
8573;BME280;4324;42.012;24.872;2023-07-30T13:20:32;98158.63;;;36.09;21.36
8573;BME280;4324;42.012;24.872;2023-07-30T13:22:59;98131.66;;;35.87;21.29
8573;BME280;4324;42.012;24.872;2023-07-30T13:25:26;98144.72;;;35.90;21.11
8573;BME280;4324;42.012;24.872;2023-07-30T13:27:54;98157.19;;;36.00;21.27
8573;BME280;4324;42.012;24.872;2023-07-30T13:30:21;98184.47;;;36.21;20.93
8573;BME280;4324;42.012;24.872;2023-07-30T13:32:52;98117.16;;;35.90;21.40
8573;BME280;4324;42.012;24.872;2023-07-30T13:35:19;98119.41;;;36.00;20.96
8573;BME280;4324;42.012;24.872;2023-07-30T13:37:46;98195.50;;;36.52;20.70